sensor_id;sensor_type;location;lat;lon;timestamp;P1;durP1;ratioP1;P2;durP2;ratioP2
20314;SDS011;10315;50.958;13.080;2023-06-10T00:01:58;12.63;;;9.55;;
20314;SDS011;10315;50.958;13.080;2023-06-10T00:12:00;12.77;;;9.50;;
20314;SDS011;10315;50.958;13.080;2023-06-10T00:22:03;11.77;;;9.10;;
20314;SDS011;10315;50.958;13.080;2023-06-10T00:32:05;14.32;;;9.90;;
20314;SDS011;10315;50.958;13.080;2023-06-10T00:42:09;14.20;;;9.60;;
20314;SDS011;10315;50.958;13.080;2023-06-10T00:52:10;14.15;;;10.35;;
20314;SDS011;10315;50.958;13.080;2023-06-10T01:02:14;16.83;;;10.15;;
20314;SDS011;10315;50.958;13.080;2023-06-10T01:12:16;17.33;;;9.77;;
20314;SDS011;10315;50.958;13.080;2023-06-10T01:22:25;14.32;;;9.85;;
20314;SDS011;10315;50.958;13.080;2023-06-10T01:32:31;17.02;;;10.43;;
20314;SDS011;10315;50.958;13.080;2023-06-10T01:42:37;16.80;;;10.85;;
20314;SDS011;10315;50.958;13.080;2023-06-10T01:52:38;14.15;;;11.00;;
20314;SDS011;10315;50.958;13.080;2023-06-10T02:02:41;13.15;;;10.90;;
20314;SDS011;10315;50.958;13.080;2023-06-10T02:12:43;16.00;;;10.52;;
20314;SDS011;10315;50.958;13.080;2023-06-10T02:22:46;17.35;;;11.32;;
20314;SDS011;10315;50.958;13.080;2023-06-10T02:32:47;14.25;;;10.70;;
20314;SDS011;10315;50.958;13.080;2023-06-10T02:42:52;18.42;;;11.07;;
20314;SDS011;10315;50.958;13.080;2023-06-10T02:52:53;19.25;;;11.32;;
20314;SDS011;10315;50.958;13.080;2023-06-10T03:02:56;19.77;;;11.25;;
20314;SDS011;10315;50.958;13.080;2023-06-10T03:12:58;19.42;;;11.10;;
20314;SDS011;10315;50.958;13.080;2023-06-10T03:23:01;17.30;;;11.50;;
20314;SDS011;10315;50.958;13.080;2023-06-10T03:33:02;18.10;;;11.70;;
20314;SDS011;10315;50.958;13.080;2023-06-10T03:43:05;18.97;;;12.53;;
20314;SDS011;10315;50.958;13.080;2023-06-10T03:53:07;17.63;;;12.05;;
20314;SDS011;10315;50.958;13.080;2023-06-10T04:03:11;19.27;;;12.38;;
20314;SDS011;10315;50.958;13.080;2023-06-10T04:13:14;16.42;;;11.23;;
20314;SDS011;10315;50.958;13.080;2023-06-10T04:23:17;19.88;;;11.82;;
20314;SDS011;10315;50.958;13.080;2023-06-10T04:33:19;19.02;;;11.77;;
20314;SDS011;10315;50.958;13.080;2023-06-10T04:43:22;17.77;;;12.70;;
20314;SDS011;10315;50.958;13.080;2023-06-10T04:53:23;16.98;;;12.95;;
20314;SDS011;10315;50.958;13.080;2023-06-10T05:03:26;19.48;;;12.15;;
20314;SDS011;10315;50.958;13.080;2023-06-10T05:13:28;23.90;;;12.90;;
20314;SDS011;10315;50.958;13.080;2023-06-10T05:23:31;17.52;;;12.68;;
20314;SDS011;10315;50.958;13.080;2023-06-10T05:33:33;17.17;;;11.68;;
20314;SDS011;10315;50.958;13.080;2023-06-10T05:43:36;16.38;;;11.68;;
20314;SDS011;10315;50.958;13.080;2023-06-10T05:53:37;17.27;;;11.38;;
20314;SDS011;10315;50.958;13.080;2023-06-10T06:03:43;14.05;;;10.20;;
20314;SDS011;10315;50.958;13.080;2023-06-10T06:13:44;16.80;;;10.18;;
20314;SDS011;10315;50.958;13.080;2023-06-10T06:23:49;12.18;;;8.60;;
20314;SDS011;10315;50.958;13.080;2023-06-10T06:33:51;6.95;;;6.22;;
20314;SDS011;10315;50.958;13.080;2023-06-10T06:43:55;7.50;;;6.63;;
20314;SDS011;10315;50.958;13.080;2023-06-10T06:53:56;7.20;;;6.50;;
20314;SDS011;10315;50.958;13.080;2023-06-10T07:04:00;7.68;;;6.30;;
20314;SDS011;10315;50.958;13.080;2023-06-10T07:14:01;6.88;;;5.43;;
20314;SDS011;10315;50.958;13.080;2023-06-10T07:24:05;8.48;;;6.05;;
20314;SDS011;10315;50.958;13.080;2023-06-10T07:34:07;6.18;;;5.25;;
20314;SDS011;10315;50.958;13.080;2023-06-10T07:44:12;5.22;;;4.82;;
20314;SDS011;10315;50.958;13.080;2023-06-10T07:54:14;5.97;;;5.35;;
20314;SDS011;10315;50.958;13.080;2023-06-10T08:04:17;5.95;;;4.95;;
20314;SDS011;10315;50.958;13.080;2023-06-10T08:14:19;8.75;;;6.45;;
20314;SDS011;10315;50.958;13.080;2023-06-10T08:24:22;7.63;;;6.13;;
20314;SDS011;10315;50.958;13.080;2023-06-10T08:34:24;7.93;;;6.13;;
20314;SDS011;10315;50.958;13.080;2023-06-10T08:44:27;7.25;;;6.55;;
20314;SDS011;10315;50.958;13.080;2023-06-10T08:54:30;9.02;;;6.53;;
20314;SDS011;10315;50.958;13.080;2023-06-10T09:04:35;7.75;;;6.18;;
20314;SDS011;10315;50.958;13.080;2023-06-10T09:14:38;7.18;;;6.18;;
20314;SDS011;10315;50.958;13.080;2023-06-10T09:24:41;7.97;;;5.43;;
20314;SDS011;10315;50.958;13.080;2023-06-10T09:34:42;10.63;;;6.40;;
20314;SDS011;10315;50.958;13.080;2023-06-10T09:44:50;13.88;;;5.88;;
20314;SDS011;10315;50.958;13.080;2023-06-10T09:54:53;9.57;;;5.80;;
20314;SDS011;10315;50.958;13.080;2023-06-10T10:05:01;7.68;;;6.13;;
20314;SDS011;10315;50.958;13.080;2023-06-10T10:15:06;8.18;;;6.57;;
20314;SDS011;10315;50.958;13.080;2023-06-10T10:25:11;10.45;;;7.68;;
20314;SDS011;10315;50.958;13.080;2023-06-10T10:35:16;8.27;;;6.22;;
20314;SDS011;10315;50.958;13.080;2023-06-10T10:45:22;5.97;;;4.78;;
20314;SDS011;10315;50.958;13.080;2023-06-10T10:55:24;8.15;;;5.00;;
20314;SDS011;10315;50.958;13.080;2023-06-10T11:05:32;6.82;;;5.07;;
20314;SDS011;10315;50.958;13.080;2023-06-10T11:15:38;8.90;;;5.40;;
20314;SDS011;10315;50.958;13.080;2023-06-10T11:25:42;8.23;;;5.45;;
20314;SDS011;10315;50.958;13.080;2023-06-10T11:35:44;9.35;;;5.45;;
20314;SDS011;10315;50.958;13.080;2023-06-10T11:45:47;10.73;;;5.40;;
20314;SDS011;10315;50.958;13.080;2023-06-10T11:55:49;6.97;;;5.25;;
20314;SDS011;10315;50.958;13.080;2023-06-10T12:05:59;9.48;;;5.30;;
20314;SDS011;10315;50.958;13.080;2023-06-10T12:16:08;5.72;;;5.10;;
20314;SDS011;10315;50.958;13.080;2023-06-10T12:26:11;7.72;;;5.07;;
20314;SDS011;10315;50.958;13.080;2023-06-10T12:36:16;6.97;;;4.85;;
20314;SDS011;10315;50.958;13.080;2023-06-10T12:46:19;9.85;;;5.30;;
20314;SDS011;10315;50.958;13.080;2023-06-10T12:56:21;5.90;;;4.80;;
20314;SDS011;10315;50.958;13.080;2023-06-10T13:06:26;8.25;;;4.60;;
20314;SDS011;10315;50.958;13.080;2023-06-10T13:16:28;5.88;;;5.05;;
20314;SDS011;10315;50.958;13.080;2023-06-10T13:26:31;6.30;;;5.50;;
20314;SDS011;10315;50.958;13.080;2023-06-10T13:36:32;8.00;;;5.20;;
20314;SDS011;10315;50.958;13.080;2023-06-10T13:46:36;9.40;;;4.55;;
20314;SDS011;10315;50.958;13.080;2023-06-10T13:56:37;8.18;;;4.40;;
20314;SDS011;10315;50.958;13.080;2023-06-10T14:06:40;10.80;;;4.60;;
20314;SDS011;10315;50.958;13.080;2023-06-10T14:16:42;10.05;;;4.72;;
20314;SDS011;10315;50.958;13.080;2023-06-10T14:26:45;8.60;;;4.45;;
20314;SDS011;10315;50.958;13.080;2023-06-10T14:36:46;6.25;;;4.28;;
20314;SDS011;10315;50.958;13.080;2023-06-10T14:46:49;6.50;;;4.50;;
20314;SDS011;10315;50.958;13.080;2023-06-10T14:56:51;5.82;;;4.55;;
20314;SDS011;10315;50.958;13.080;2023-06-10T15:06:54;5.97;;;3.72;;
20314;SDS011;10315;50.958;13.080;2023-06-10T15:16:55;8.07;;;4.38;;
20314;SDS011;10315;50.958;13.080;2023-06-10T15:27:00;5.78;;;4.13;;
20314;SDS011;10315;50.958;13.080;2023-06-10T15:37:02;5.82;;;4.18;;
20314;SDS011;10315;50.958;13.080;2023-06-10T15:47:05;4.75;;;4.25;;
20314;SDS011;10315;50.958;13.080;2023-06-10T15:57:07;5.38;;;4.25;;
20314;SDS011;10315;50.958;13.080;2023-06-10T16:07:10;7.55;;;4.07;;
20314;SDS011;10315;50.958;13.080;2023-06-10T16:17:12;6.07;;;4.47;;
20314;SDS011;10315;50.958;13.080;2023-06-10T16:27:14;7.32;;;4.97;;
20314;SDS011;10315;50.958;13.080;2023-06-10T16:37:16;8.02;;;4.82;;
20314;SDS011;10315;50.958;13.080;2023-06-10T16:47:19;5.82;;;5.05;;
20314;SDS011;10315;50.958;13.080;2023-06-10T16:57:21;7.03;;;5.18;;
20314;SDS011;10315;50.958;13.080;2023-06-10T17:07:24;7.47;;;5.60;;
20314;SDS011;10315;50.958;13.080;2023-06-10T17:17:25;9.95;;;6.03;;
20314;SDS011;10315;50.958;13.080;2023-06-10T17:27:28;8.43;;;6.10;;
20314;SDS011;10315;50.958;13.080;2023-06-10T17:37:30;6.57;;;5.18;;
20314;SDS011;10315;50.958;13.080;2023-06-10T17:47:33;6.22;;;4.85;;
20314;SDS011;10315;50.958;13.080;2023-06-10T17:57:34;6.70;;;5.10;;
20314;SDS011;10315;50.958;13.080;2023-06-10T18:07:37;10.20;;;5.57;;
20314;SDS011;10315;50.958;13.080;2023-06-10T18:17:39;7.63;;;5.78;;
20314;SDS011;10315;50.958;13.080;2023-06-10T18:27:42;7.35;;;5.80;;
20314;SDS011;10315;50.958;13.080;2023-06-10T18:37:44;9.52;;;5.70;;
20314;SDS011;10315;50.958;13.080;2023-06-10T18:47:48;7.40;;;5.38;;
20314;SDS011;10315;50.958;13.080;2023-06-10T18:57:49;7.85;;;5.32;;
20314;SDS011;10315;50.958;13.080;2023-06-10T19:07:52;10.85;;;6.38;;
20314;SDS011;10315;50.958;13.080;2023-06-10T19:17:54;6.65;;;5.95;;
20314;SDS011;10315;50.958;13.080;2023-06-10T19:27:57;7.75;;;4.95;;
20314;SDS011;10315;50.958;13.080;2023-06-10T19:37:58;9.25;;;6.70;;
20314;SDS011;10315;50.958;13.080;2023-06-10T19:48:01;10.57;;;7.18;;
20314;SDS011;10315;50.958;13.080;2023-06-10T19:58:04;12.25;;;7.00;;
20314;SDS011;10315;50.958;13.080;2023-06-10T20:08:07;8.82;;;6.72;;
20314;SDS011;10315;50.958;13.080;2023-06-10T20:18:08;9.93;;;6.88;;
20314;SDS011;10315;50.958;13.080;2023-06-10T20:28:12;8.07;;;6.55;;
20314;SDS011;10315;50.958;13.080;2023-06-10T20:38:14;9.50;;;6.43;;
20314;SDS011;10315;50.958;13.080;2023-06-10T20:48:17;7.43;;;6.60;;
20314;SDS011;10315;50.958;13.080;2023-06-10T20:58:19;10.80;;;7.43;;
20314;SDS011;10315;50.958;13.080;2023-06-10T21:08:22;10.35;;;7.68;;
20314;SDS011;10315;50.958;13.080;2023-06-10T21:18:24;9.13;;;6.53;;
20314;SDS011;10315;50.958;13.080;2023-06-10T21:28:27;9.43;;;7.40;;
20314;SDS011;10315;50.958;13.080;2023-06-10T21:38:28;12.27;;;8.80;;
20314;SDS011;10315;50.958;13.080;2023-06-10T21:48:31;11.82;;;9.35;;
20314;SDS011;10315;50.958;13.080;2023-06-10T21:58:33;12.85;;;8.85;;
20314;SDS011;10315;50.958;13.080;2023-06-10T22:08:36;10.77;;;8.57;;
20314;SDS011;10315;50.958;13.080;2023-06-10T22:18:38;10.73;;;8.65;;
20314;SDS011;10315;50.958;13.080;2023-06-10T22:28:41;15.80;;;9.52;;
20314;SDS011;10315;50.958;13.080;2023-06-10T22:38:43;13.10;;;8.13;;
20314;SDS011;10315;50.958;13.080;2023-06-10T22:48:46;13.85;;;7.72;;
20314;SDS011;10315;50.958;13.080;2023-06-10T22:58:48;15.00;;;7.70;;
20314;SDS011;10315;50.958;13.080;2023-06-10T23:08:50;12.68;;;6.75;;
20314;SDS011;10315;50.958;13.080;2023-06-10T23:18:52;8.70;;;6.22;;
20314;SDS011;10315;50.958;13.080;2023-06-10T23:28:55;9.63;;;6.82;;
20314;SDS011;10315;50.958;13.080;2023-06-10T23:38:57;10.63;;;6.30;;
20314;SDS011;10315;50.958;13.080;2023-06-10T23:48:59;8.07;;;5.45;;
20314;SDS011;10315;50.958;13.080;2023-06-10T23:59:03;12.30;;;5.97;;
